createdAt,value
2022-08-17T00:00:42.699Z,2.17
2022-08-17T00:03:10.235Z,1.88
2022-08-17T00:05:43.670Z,2.35
2022-08-17T00:08:13.001Z,2.20
2022-08-17T00:10:41.832Z,2.05
2022-08-17T00:13:11.597Z,2.78
2022-08-17T00:15:40.476Z,2.53
2022-08-17T00:19:06.395Z,2.25
2022-08-17T00:20:59.879Z,1.83
2022-08-17T00:23:28.984Z,2.28
2022-08-17T00:25:57.215Z,2.17
2022-08-17T00:28:25.602Z,2.30
2022-08-17T00:30:54.834Z,2.00
2022-08-17T00:33:26.224Z,1.80
2022-08-17T00:35:54.986Z,1.92
2022-08-17T00:38:25.984Z,2.03
2022-08-17T00:40:59.167Z,1.90
2022-08-17T00:43:30.961Z,2.20
2022-08-17T00:46:00.358Z,1.95
2022-08-17T00:48:30.606Z,2.03
2022-08-17T00:51:04.232Z,2.05
2022-08-17T00:53:37.693Z,2.28
2022-08-17T00:56:08.529Z,2.13
2022-08-17T00:58:37.425Z,1.95
2022-08-17T01:01:07.943Z,2.28
2022-08-17T01:03:38.626Z,2.20
2022-08-17T01:06:09.166Z,1.95
2022-08-17T01:08:40.708Z,2.00
2022-08-17T01:11:09.718Z,1.83
2022-08-17T01:13:41.804Z,1.75
2022-08-17T01:16:17.305Z,2.13
2022-08-17T01:18:47.216Z,2.08
2022-08-17T01:21:22.033Z,2.17
2022-08-17T01:23:52.101Z,2.40
2022-08-17T01:26:21.197Z,2.30
2022-08-17T01:28:53.901Z,1.65
2022-08-17T01:31:25.429Z,2.00
2022-08-17T01:33:53.674Z,2.25
2022-08-17T01:36:22.695Z,1.90
2022-08-17T01:38:52.633Z,1.90
2022-08-17T01:41:25.215Z,2.00
2022-08-17T01:44:00.217Z,2.22
2022-08-17T01:46:32.170Z,2.03
2022-08-17T01:49:01.577Z,1.95
2022-08-17T01:51:33.084Z,2.30
2022-08-17T01:54:06.552Z,2.38
2022-08-17T01:56:36.474Z,2.35
2022-08-17T01:59:05.331Z,2.25
2022-08-17T02:01:35.826Z,1.77
2022-08-17T02:04:05.099Z,1.98
2022-08-17T02:06:52.522Z,1.75
2022-08-17T02:09:25.567Z,2.15
2022-08-17T02:11:54.620Z,1.92
2022-08-17T02:14:23.761Z,2.45
2022-08-17T02:16:52.182Z,2.20
2022-08-17T02:19:20.847Z,1.90
2022-08-17T02:21:51.377Z,2.28
2022-08-17T02:24:58.722Z,2.35
2022-08-17T02:27:13.656Z,1.88
2022-08-17T02:29:44.573Z,2.13
2022-08-17T02:32:27.980Z,2.10
2022-08-17T02:34:57.496Z,1.63
2022-08-17T02:37:25.928Z,2.50
2022-08-17T02:39:57.238Z,2.22
2022-08-17T02:42:29.321Z,2.10
2022-08-17T02:44:57.515Z,2.05
2022-08-17T02:47:25.906Z,2.08
2022-08-17T02:49:55.819Z,2.30
2022-08-17T02:52:42.959Z,2.15
2022-08-17T02:55:15.927Z,2.05
2022-08-17T02:57:44.696Z,2.17
2022-08-17T03:00:16.437Z,1.98
2022-08-17T03:02:45.753Z,2.38
2022-08-17T03:05:17.037Z,2.78
2022-08-17T03:07:45.680Z,2.38
2022-08-17T03:10:16.703Z,2.25
2022-08-17T03:12:46.438Z,2.42
2022-08-17T03:15:17.589Z,2.35
2022-08-17T03:17:46.599Z,1.67
2022-08-17T03:20:16.255Z,2.50
2022-08-17T03:22:48.000Z,2.28
2022-08-17T03:25:26.802Z,2.42
2022-08-17T03:27:55.849Z,2.45
2022-08-17T03:30:25.198Z,2.55
2022-08-17T03:32:56.113Z,2.58
2022-08-17T03:35:27.263Z,2.38
2022-08-17T03:38:00.234Z,2.58
2022-08-17T03:40:55.172Z,2.40
2022-08-17T03:43:21.234Z,2.03
2022-08-17T03:46:11.003Z,2.67
2022-08-17T03:49:12.734Z,2.10
2022-08-17T03:51:58.252Z,2.20
2022-08-17T03:54:43.608Z,2.03
2022-08-17T03:57:13.602Z,2.65
2022-08-17T03:59:42.048Z,2.70
2022-08-17T04:02:14.737Z,2.70
2022-08-17T04:04:42.961Z,2.40
2022-08-17T04:07:11.319Z,2.42
2022-08-17T04:09:39.600Z,2.22
2022-08-17T04:12:08.046Z,2.60
2022-08-17T04:14:51.822Z,2.17
2022-08-17T04:17:22.568Z,2.30
2022-08-17T04:19:50.792Z,2.40
2022-08-17T04:22:33.234Z,2.80
2022-08-17T04:25:07.894Z,2.30
2022-08-17T04:27:36.085Z,2.25
2022-08-17T04:30:08.260Z,2.15
2022-08-17T04:33:03.605Z,2.80
2022-08-17T04:35:38.851Z,2.53
2022-08-17T04:38:07.864Z,2.22
2022-08-17T04:40:53.221Z,2.10
2022-08-17T04:43:23.574Z,2.42
2022-08-17T04:45:56.845Z,2.35
2022-08-17T04:48:34.715Z,2.90
2022-08-17T04:51:07.454Z,2.92
2022-08-17T04:53:35.799Z,3.13
2022-08-17T04:56:04.192Z,3.13
2022-08-17T04:58:32.568Z,2.85
2022-08-17T05:01:02.670Z,2.40
2022-08-17T05:03:31.288Z,2.60
2022-08-17T05:05:59.553Z,2.67
2022-08-17T05:08:27.741Z,2.67
2022-08-17T05:10:56.013Z,2.45
2022-08-17T05:13:25.713Z,2.78
2022-08-17T05:15:56.864Z,3.10
2022-08-17T05:18:27.281Z,2.70
2022-08-17T05:20:56.222Z,2.55
2022-08-17T05:23:27.140Z,2.78
2022-08-17T05:26:11.782Z,2.83
2022-08-17T05:28:54.140Z,2.38
2022-08-17T05:31:22.625Z,2.92
2022-08-17T05:33:52.474Z,3.30
2022-08-17T05:36:43.349Z,2.75
2022-08-17T05:39:08.859Z,2.78
2022-08-17T05:41:43.965Z,3.03
2022-08-17T05:44:12.290Z,3.03
2022-08-17T05:46:45.424Z,2.42
2022-08-17T05:49:17.370Z,2.65
2022-08-17T05:52:14.953Z,3.00
2022-08-17T05:54:58.314Z,2.30
2022-08-17T05:57:43.585Z,3.42
2022-08-17T06:00:20.257Z,2.72
2022-08-17T06:03:01.771Z,2.80
2022-08-17T06:05:45.236Z,2.47
2022-08-17T06:08:22.068Z,2.33
2022-08-17T06:10:59.445Z,1.98
2022-08-17T06:13:40.007Z,2.38
2022-08-17T06:16:33.376Z,2.33
2022-08-17T06:19:03.332Z,2.90
2022-08-17T06:21:38.953Z,2.53
2022-08-17T06:24:14.921Z,2.45
2022-08-17T06:26:45.569Z,2.50
2022-08-17T06:29:21.370Z,2.33
2022-08-17T06:31:50.112Z,2.20
2022-08-17T06:34:19.470Z,2.33
2022-08-17T06:36:58.140Z,3.05
2022-08-17T06:39:44.706Z,2.88
2022-08-17T06:42:54.910Z,2.60
2022-08-17T06:45:13.117Z,2.42
2022-08-17T06:47:48.362Z,2.60
2022-08-17T06:50:21.076Z,2.63
2022-08-17T06:52:57.398Z,2.95
2022-08-17T06:55:35.800Z,2.65
2022-08-17T06:58:15.758Z,2.67
2022-08-17T07:00:47.677Z,3.65
2022-08-17T07:03:27.582Z,2.95
2022-08-17T07:06:00.103Z,3.28
2022-08-17T07:08:37.972Z,2.80
2022-08-17T07:11:11.057Z,3.97
2022-08-17T07:13:51.304Z,3.10
2022-08-17T07:16:24.821Z,4.05
2022-08-17T07:18:55.328Z,3.38
2022-08-17T07:21:41.548Z,3.88
2022-08-17T07:24:29.976Z,4.10
2022-08-17T07:27:12.581Z,3.78
2022-08-17T07:29:44.172Z,2.85
2022-08-17T07:32:18.421Z,2.85
2022-08-17T07:35:15.334Z,3.33
2022-08-17T07:37:45.989Z,3.55
2022-08-17T07:40:22.282Z,3.92
2022-08-17T07:43:11.434Z,3.00
2022-08-17T07:46:15.430Z,2.92
2022-08-17T07:48:48.602Z,2.97
2022-08-17T07:51:27.037Z,2.97
2022-08-17T07:54:13.154Z,3.00
2022-08-17T07:56:47.922Z,2.80
2022-08-17T07:59:23.746Z,2.83
2022-08-17T08:02:06.092Z,3.00
2022-08-17T08:07:31.977Z,2.70
2022-08-17T08:10:08.847Z,1.95
2022-08-17T08:12:40.710Z,2.45
2022-08-17T08:15:18.881Z,2.85
2022-08-17T08:17:53.106Z,2.53
2022-08-17T08:20:51.884Z,3.53
2022-08-17T08:23:30.666Z,2.50
2022-08-17T08:26:18.421Z,2.45
2022-08-17T08:28:59.224Z,2.30
2022-08-17T08:31:42.067Z,2.83
2022-08-17T08:34:44.977Z,2.22
2022-08-17T08:37:30.368Z,2.90
2022-08-17T08:40:11.096Z,1.73
2022-08-17T08:42:47.069Z,2.50
2022-08-17T08:45:23.812Z,2.38
2022-08-17T08:48:46.124Z,2.42
2022-08-17T08:51:11.413Z,3.03
2022-08-17T08:53:48.598Z,3.08
2022-08-17T08:56:25.977Z,3.40
2022-08-17T08:59:02.663Z,2.75
2022-08-17T09:01:38.529Z,2.65
2022-08-17T09:04:25.846Z,2.60
2022-08-17T09:07:05.893Z,2.60
2022-08-17T09:09:42.297Z,2.58
2022-08-17T09:12:18.721Z,3.05
2022-08-17T09:14:57.809Z,2.97
2022-08-17T09:17:40.099Z,2.40
2022-08-17T09:20:27.884Z,2.50
2022-08-17T09:23:01.085Z,2.50
2022-08-17T09:25:36.238Z,2.47
2022-08-17T09:28:08.725Z,2.58
2022-08-17T09:30:45.499Z,2.90
2022-08-17T09:33:19.634Z,2.40
2022-08-17T09:35:54.847Z,2.38
2022-08-17T09:38:32.183Z,2.38
2022-08-17T09:41:10.054Z,2.10
2022-08-17T09:43:44.844Z,2.50
2022-08-17T09:46:19.737Z,2.55
2022-08-17T09:48:56.458Z,2.50
2022-08-17T09:51:33.579Z,1.95
2022-08-17T09:54:34.997Z,1.92
2022-08-17T09:57:27.931Z,2.53
2022-08-17T10:00:01.381Z,2.95
2022-08-17T10:02:44.065Z,2.55
2022-08-17T10:05:19.132Z,2.35
2022-08-17T10:07:54.165Z,2.92
2022-08-17T10:10:26.757Z,2.58
2022-08-17T10:12:59.969Z,2.38
2022-08-17T10:15:42.478Z,2.42
2022-08-17T10:18:35.305Z,2.72
2022-08-17T10:21:26.888Z,2.60
2022-08-17T10:24:21.965Z,2.47
2022-08-17T10:26:56.864Z,2.50
2022-08-17T10:29:30.471Z,2.80
2022-08-17T10:32:25.389Z,2.47
2022-08-17T10:35:35.119Z,2.38
2022-08-17T10:38:38.927Z,2.20
2022-08-17T10:41:24.109Z,2.75
2022-08-17T10:44:37.004Z,3.10
2022-08-17T10:47:02.328Z,2.67
2022-08-17T10:49:34.027Z,2.88
2022-08-17T10:52:05.156Z,3.13
2022-08-17T10:54:46.744Z,3.05
2022-08-17T10:57:43.776Z,2.97
2022-08-17T11:00:57.830Z,3.03
2022-08-17T11:03:27.654Z,2.47
2022-08-17T11:06:12.677Z,2.90
2022-08-17T11:09:08.883Z,2.50
2022-08-17T11:11:51.052Z,2.33
2022-08-17T11:14:35.505Z,3.00
2022-08-17T11:17:15.508Z,2.15
2022-08-17T11:20:14.214Z,2.42
2022-08-17T11:23:17.152Z,2.58
2022-08-17T11:25:49.633Z,2.75
2022-08-17T11:28:23.243Z,2.47
2022-08-17T11:30:54.884Z,2.92
2022-08-17T11:33:53.870Z,2.60
2022-08-17T11:36:47.153Z,2.17
2022-08-17T11:39:34.063Z,2.40
2022-08-17T11:42:07.163Z,2.60
2022-08-17T11:44:52.444Z,2.72
2022-08-17T11:48:02.470Z,2.78
2022-08-17T11:51:05.969Z,2.17
2022-08-17T11:54:30.515Z,2.60
2022-08-17T11:56:50.242Z,2.20
2022-08-17T11:59:59.100Z,2.50
2022-08-17T12:02:47.474Z,2.55
2022-08-17T12:05:34.180Z,3.28
2022-08-17T12:08:15.474Z,2.80
2022-08-17T12:11:00.672Z,2.75
2022-08-17T12:13:38.772Z,2.08
2022-08-17T12:16:14.581Z,2.65
2022-08-17T12:18:51.173Z,2.53
2022-08-17T12:21:28.992Z,2.42
2022-08-17T12:24:06.516Z,2.67
2022-08-17T12:26:36.902Z,2.65
2022-08-17T12:29:09.430Z,2.20
2022-08-17T12:31:50.337Z,2.00
2022-08-17T12:34:21.264Z,2.78
2022-08-17T12:36:52.050Z,2.70
2022-08-17T12:39:25.034Z,2.58
2022-08-17T12:42:01.980Z,2.80
2022-08-17T12:44:32.603Z,2.33
2022-08-17T12:47:07.028Z,2.50
2022-08-17T12:49:36.992Z,2.65
2022-08-17T12:52:12.308Z,2.22
2022-08-17T12:54:47.949Z,2.25
2022-08-17T12:57:23.068Z,2.40
2022-08-17T12:59:55.340Z,2.47
2022-08-17T13:02:42.645Z,2.65
2022-08-17T13:05:19.147Z,2.40
2022-08-17T13:07:47.940Z,2.22
2022-08-17T13:10:22.877Z,2.63
2022-08-17T13:12:52.447Z,2.35
2022-08-17T13:15:29.623Z,2.70
2022-08-17T13:18:08.841Z,2.40
2022-08-17T13:20:38.340Z,2.60
2022-08-17T13:23:12.638Z,2.58
2022-08-17T13:25:41.297Z,2.70
2022-08-17T13:28:35.772Z,2.13
2022-08-17T13:31:26.333Z,1.85
2022-08-17T13:34:13.895Z,2.33
2022-08-17T13:36:44.502Z,2.13
2022-08-17T13:39:19.085Z,2.33
2022-08-17T13:41:49.712Z,2.33
2022-08-17T13:44:36.658Z,2.50
2022-08-17T13:47:07.414Z,2.80
2022-08-17T13:49:48.317Z,3.05
2022-08-17T13:52:36.432Z,2.42
2022-08-17T13:55:09.944Z,2.58
2022-08-17T13:57:38.504Z,2.90
2022-08-17T14:00:19.548Z,2.30
2022-08-17T14:02:47.663Z,2.20
2022-08-17T14:05:17.658Z,2.30
2022-08-17T14:07:45.899Z,2.15
2022-08-17T14:10:17.412Z,2.78
2022-08-17T14:12:46.784Z,2.00
2022-08-17T14:15:17.852Z,3.00
2022-08-17T14:17:46.339Z,2.60
2022-08-17T14:20:18.235Z,2.63
2022-08-17T14:22:51.288Z,2.58
2022-08-17T14:25:22.464Z,2.42
2022-08-17T14:27:53.663Z,2.22
2022-08-17T14:30:25.008Z,2.17
2022-08-17T14:32:54.324Z,2.30
2022-08-17T14:35:25.249Z,2.95
2022-08-17T14:37:54.314Z,2.30
2022-08-17T14:40:24.703Z,2.47
2022-08-17T14:42:55.300Z,2.35
2022-08-17T14:45:32.324Z,2.25
2022-08-17T14:48:04.266Z,2.60
2022-08-17T14:50:35.283Z,2.85
2022-08-17T14:53:05.240Z,2.40
2022-08-17T14:55:33.718Z,2.60
2022-08-17T14:58:01.977Z,2.63
2022-08-17T15:00:30.096Z,2.53
2022-08-17T15:03:00.429Z,2.22
2022-08-17T15:05:31.753Z,2.58
2022-08-17T15:08:02.466Z,2.25
2022-08-17T15:10:31.655Z,3.17
2022-08-17T15:13:00.482Z,2.10
2022-08-17T15:15:29.582Z,2.42
2022-08-17T15:17:58.309Z,2.50
2022-08-17T15:20:30.351Z,2.85
2022-08-17T15:22:59.546Z,2.53
2022-08-17T15:25:31.890Z,2.67
2022-08-17T15:28:01.488Z,2.47
2022-08-17T15:30:30.076Z,2.55
2022-08-17T15:32:59.276Z,2.70
2022-08-17T15:35:31.395Z,2.55
2022-08-17T15:38:07.984Z,3.20
2022-08-17T15:40:42.743Z,2.78
2022-08-17T15:43:13.481Z,2.72
2022-08-17T15:45:41.973Z,3.05
2022-08-17T15:48:10.578Z,3.08
2022-08-17T15:50:39.052Z,3.17
2022-08-17T15:53:07.310Z,2.22
2022-08-17T15:55:36.731Z,2.47
2022-08-17T15:58:07.043Z,2.53
2022-08-17T16:00:44.135Z,2.35
2022-08-17T16:03:46.869Z,2.30
2022-08-17T16:06:09.799Z,2.72
2022-08-17T16:08:41.796Z,2.55
2022-08-17T16:11:11.241Z,2.22
2022-08-17T16:13:41.672Z,2.22
2022-08-17T16:16:16.304Z,3.17
2022-08-17T16:18:44.893Z,2.90
2022-08-17T16:21:42.786Z,2.47
2022-08-17T16:24:13.435Z,2.50
2022-08-17T16:26:42.001Z,3.03
2022-08-17T16:29:11.810Z,2.50
2022-08-17T16:31:40.153Z,2.80
2022-08-17T16:34:16.986Z,3.03
2022-08-17T16:36:53.767Z,3.00
2022-08-17T16:39:24.366Z,2.72
2022-08-17T16:41:52.656Z,2.85
2022-08-17T16:44:23.190Z,2.70
2022-08-17T16:46:51.613Z,2.55
2022-08-17T16:49:27.617Z,2.50
2022-08-17T16:52:10.074Z,2.42
2022-08-17T16:54:40.650Z,2.53
2022-08-17T16:57:08.843Z,2.35
2022-08-17T16:59:41.118Z,2.30
2022-08-17T17:02:15.303Z,2.20
2022-08-17T17:04:51.360Z,2.17
2022-08-17T17:07:37.502Z,2.72
2022-08-17T17:10:10.139Z,2.60
2022-08-17T17:13:01.629Z,2.90
2022-08-17T17:15:41.531Z,2.70
2022-08-17T17:18:14.867Z,2.55
2022-08-17T17:20:50.793Z,2.50
2022-08-17T17:23:43.159Z,2.65
2022-08-17T17:26:25.137Z,2.78
2022-08-17T17:29:18.306Z,2.60
2022-08-17T17:32:05.806Z,2.65
2022-08-17T17:34:35.119Z,2.63
2022-08-17T17:37:08.767Z,3.00
2022-08-17T17:39:43.769Z,3.05
2022-08-17T17:42:19.914Z,2.88
2022-08-17T17:44:52.393Z,3.42
2022-08-17T17:47:22.766Z,3.00
2022-08-17T17:49:51.045Z,3.45
2022-08-17T17:52:27.301Z,2.80
2022-08-17T17:55:07.537Z,3.78
2022-08-17T17:57:48.197Z,3.50
2022-08-17T18:00:21.985Z,3.42
2022-08-17T18:03:14.692Z,3.17
2022-08-17T18:06:18.643Z,3.65
2022-08-17T18:09:03.295Z,3.20
2022-08-17T18:11:59.669Z,3.33
2022-08-17T18:14:42.410Z,4.05
2022-08-17T18:17:10.740Z,3.92
2022-08-17T18:19:41.521Z,4.28
2022-08-17T18:22:14.159Z,3.42
2022-08-17T18:24:45.838Z,3.97
2022-08-17T18:27:24.462Z,3.95
2022-08-17T18:29:54.577Z,4.13
2022-08-17T18:32:29.387Z,5.05
2022-08-17T18:35:01.779Z,5.25
2022-08-17T18:37:37.881Z,4.70
2022-08-17T18:40:30.062Z,5.75
2022-08-17T18:43:11.976Z,5.70
2022-08-17T18:45:45.452Z,5.90
2022-08-17T18:48:26.135Z,6.30
2022-08-17T18:50:58.257Z,7.22
2022-08-17T18:53:39.180Z,6.13
2022-08-17T18:56:25.705Z,6.13
2022-08-17T18:59:14.045Z,6.32
2022-08-17T19:01:53.724Z,8.45
2022-08-17T19:04:34.856Z,9.10
2022-08-17T19:07:08.186Z,7.50
2022-08-17T19:09:40.050Z,6.45
2022-08-17T19:12:15.291Z,5.72
2022-08-17T19:14:44.781Z,5.18
2022-08-17T19:17:20.577Z,6.07
2022-08-17T19:19:55.696Z,5.20
2022-08-17T19:22:32.907Z,5.47
2022-08-17T19:25:10.620Z,5.18
2022-08-17T19:27:50.008Z,4.78
2022-08-17T19:30:21.185Z,4.53
2022-08-17T19:32:50.544Z,4.90
2022-08-17T19:35:20.389Z,3.95
2022-08-17T19:38:00.910Z,4.63
2022-08-17T19:43:29.033Z,5.50
2022-08-17T19:46:08.792Z,5.05
2022-08-17T19:48:46.802Z,4.55
2022-08-17T19:51:20.826Z,4.70
2022-08-17T19:54:07.141Z,4.88
2022-08-17T19:56:54.555Z,5.65
2022-08-17T19:59:36.370Z,4.47
2022-08-17T20:02:16.481Z,5.03
2022-08-17T20:04:48.144Z,4.85
2022-08-17T20:07:20.291Z,4.13
2022-08-17T20:09:55.662Z,4.82
2022-08-17T20:12:28.501Z,4.47
2022-08-17T20:15:00.422Z,4.72
2022-08-17T20:17:33.525Z,4.72
2022-08-17T20:20:19.983Z,4.50
2022-08-17T20:22:55.415Z,5.00
2022-08-17T20:25:32.132Z,4.65
2022-08-17T20:28:05.984Z,5.07
2022-08-17T20:30:39.103Z,5.85
2022-08-17T20:33:08.996Z,5.15
2022-08-17T20:36:00.677Z,4.90
2022-08-17T20:38:42.260Z,5.47
2022-08-17T20:41:17.265Z,4.97
2022-08-17T20:44:04.696Z,4.72
2022-08-17T20:46:58.042Z,4.53
2022-08-17T20:49:35.479Z,5.53
2022-08-17T20:52:08.781Z,5.07
2022-08-17T20:54:47.685Z,4.55
2022-08-17T20:57:49.088Z,5.57
2022-08-17T21:00:46.644Z,5.57
2022-08-17T21:03:51.322Z,5.88
2022-08-17T21:06:25.841Z,5.97
2022-08-17T21:08:59.985Z,5.22
2022-08-17T21:12:03.404Z,3.92
2022-08-17T21:14:56.484Z,4.53
2022-08-17T21:17:44.741Z,4.30
2022-08-17T21:20:32.298Z,4.25
2022-08-17T21:23:18.589Z,4.25
2022-08-17T21:26:05.618Z,4.38
2022-08-17T21:29:00.053Z,5.00
2022-08-17T21:31:35.178Z,4.78
2022-08-17T21:34:29.842Z,5.95
2022-08-17T21:37:40.058Z,4.88
2022-08-17T21:40:24.671Z,4.50
2022-08-17T21:42:58.274Z,3.97
2022-08-17T21:45:31.875Z,4.55
2022-08-17T21:48:13.485Z,4.32
2022-08-17T21:50:44.168Z,4.28
2022-08-17T21:53:25.416Z,4.68
2022-08-17T21:55:55.452Z,4.65
2022-08-17T21:58:31.390Z,4.20
2022-08-17T22:01:25.025Z,4.75
2022-08-17T22:04:00.872Z,4.78
2022-08-17T22:06:35.829Z,4.82
2022-08-17T22:09:14.136Z,4.38
2022-08-17T22:12:00.984Z,5.05
2022-08-17T22:14:52.848Z,4.30
2022-08-17T22:17:23.749Z,4.20
2022-08-17T22:19:54.782Z,5.40
2022-08-17T22:22:28.236Z,4.78
2022-08-17T22:25:00.493Z,4.90
2022-08-17T22:27:48.032Z,4.05
2022-08-17T22:30:32.356Z,4.55
2022-08-17T22:33:01.987Z,4.15
2022-08-17T22:35:41.932Z,4.25
2022-08-17T22:38:32.805Z,3.75
2022-08-17T22:41:32.159Z,4.65
2022-08-17T22:44:07.924Z,4.10
2022-08-17T22:46:42.613Z,4.47
2022-08-17T22:49:11.073Z,4.75
2022-08-17T22:51:43.952Z,4.35
2022-08-17T22:54:36.356Z,4.93
2022-08-17T22:57:30.925Z,4.97
2022-08-17T23:00:01.241Z,5.00
2022-08-17T23:02:31.602Z,5.07
2022-08-17T23:05:21.664Z,5.35
2022-08-17T23:07:53.286Z,4.97
2022-08-17T23:10:21.931Z,4.70
2022-08-17T23:12:51.717Z,5.65
2022-08-17T23:15:20.632Z,4.93
2022-08-17T23:17:49.082Z,3.80
2022-08-17T23:20:18.016Z,3.83
2022-08-17T23:22:51.973Z,4.18
2022-08-17T23:25:28.001Z,4.75
2022-08-17T23:28:01.758Z,4.55
2022-08-17T23:30:31.269Z,3.83
2022-08-17T23:33:01.364Z,4.68
2022-08-17T23:35:40.278Z,3.95
2022-08-17T23:38:10.112Z,3.60
2022-08-17T23:40:39.490Z,3.33
2022-08-17T23:43:23.646Z,3.67
2022-08-17T23:45:53.498Z,3.67
2022-08-17T23:48:32.508Z,3.80
2022-08-17T23:51:09.769Z,3.05
2022-08-17T23:53:40.670Z,3.53
2022-08-17T23:56:11.132Z,3.72
2022-08-17T23:58:43.230Z,3.90
